createdAt,value
2023-04-07T00:01:52.894Z,15.69
2023-04-07T00:04:56.651Z,15.79
2023-04-07T00:07:58.811Z,15.79
2023-04-07T00:11:01.118Z,15.75
2023-04-07T00:14:03.617Z,15.71
2023-04-07T00:17:05.866Z,15.81
2023-04-07T00:20:08.593Z,15.76
2023-04-07T00:23:10.893Z,15.72
2023-04-07T00:26:13.008Z,15.64
2023-04-07T00:29:18.395Z,15.64
2023-04-07T00:32:20.621Z,15.53
2023-04-07T00:35:22.684Z,15.61
2023-04-07T00:38:24.821Z,15.61
2023-04-07T00:41:26.912Z,15.55
2023-04-07T00:44:28.953Z,15.63
2023-04-07T00:47:31.643Z,15.63
2023-04-07T00:50:33.970Z,15.51
2023-04-07T00:53:36.192Z,15.64
2023-04-07T00:56:38.653Z,15.59
2023-04-07T00:59:40.846Z,15.53
2023-04-07T01:02:52.629Z,15.50
2023-04-07T01:06:08.318Z,15.60
2023-04-07T01:09:13.127Z,15.54
2023-04-07T01:12:33.764Z,15.60
2023-04-07T01:15:39.358Z,15.63
2023-04-07T01:18:48.161Z,15.50
2023-04-07T01:21:53.937Z,15.46
2023-04-07T01:25:17.479Z,15.51
2023-04-07T01:28:47.092Z,15.61
2023-04-07T01:31:51.424Z,15.52
2023-04-07T01:34:56.088Z,15.47
2023-04-07T01:38:00.602Z,15.43
2023-04-07T01:41:04.051Z,15.43
2023-04-07T01:44:09.069Z,15.56
2023-04-07T01:47:11.950Z,15.44
2023-04-07T01:50:14.845Z,15.69
2023-04-07T01:53:18.135Z,15.63
2023-04-07T01:56:20.298Z,15.66
2023-04-07T01:59:26.470Z,15.70
2023-04-07T02:02:30.312Z,15.70
2023-04-07T02:05:35.677Z,15.54
2023-04-07T02:08:42.680Z,15.54
2023-04-07T02:11:46.433Z,15.45
2023-04-07T02:14:49.262Z,15.61
2023-04-07T02:17:54.819Z,15.36
2023-04-07T02:20:58.692Z,15.54
2023-04-07T02:24:06.098Z,15.41
2023-04-07T02:27:08.238Z,15.38
2023-04-07T02:30:11.362Z,15.40
2023-04-07T02:33:13.493Z,15.45
2023-04-07T02:36:17.843Z,15.48
2023-04-07T02:39:20.649Z,15.51
2023-04-07T02:42:22.683Z,15.47
2023-04-07T02:45:24.662Z,15.33
2023-04-07T02:48:26.911Z,15.40
2023-04-07T02:51:29.217Z,15.37
2023-04-07T02:54:31.298Z,15.33
2023-04-07T02:57:33.642Z,15.38
2023-04-07T03:00:39.048Z,15.30
2023-04-07T03:03:54.754Z,15.24
2023-04-07T03:06:59.856Z,15.41
2023-04-07T03:10:04.102Z,15.43
2023-04-07T03:13:08.426Z,15.60
2023-04-07T03:16:11.650Z,15.35
2023-04-07T03:19:27.691Z,15.38
2023-04-07T03:22:30.007Z,15.51
2023-04-07T03:25:32.884Z,15.43
2023-04-07T03:28:35.408Z,15.42
2023-04-07T03:31:37.919Z,15.46
2023-04-07T03:34:40.222Z,15.38
2023-04-07T03:37:42.508Z,15.38
2023-04-07T03:40:49.144Z,15.34
2023-04-07T03:43:51.704Z,15.53
2023-04-07T03:46:55.075Z,15.39
2023-04-07T03:49:58.785Z,15.37
2023-04-07T03:53:02.209Z,15.27
2023-04-07T03:56:06.406Z,15.35
2023-04-07T03:59:20.524Z,15.22
2023-04-07T04:02:31.280Z,15.42
2023-04-07T04:05:34.315Z,15.57
2023-04-07T04:08:36.501Z,15.44
2023-04-07T04:11:38.575Z,15.47
2023-04-07T04:14:41.294Z,15.41
2023-04-07T04:17:45.732Z,15.51
2023-04-07T04:20:49.011Z,15.36
2023-04-07T04:23:51.605Z,15.45
2023-04-07T04:26:53.843Z,15.36
2023-04-07T04:29:56.262Z,15.41
2023-04-07T04:33:09.135Z,15.32
2023-04-07T04:36:31.639Z,15.31
2023-04-07T04:39:39.331Z,15.39
2023-04-07T04:42:41.920Z,15.37
2023-04-07T04:45:46.233Z,15.47
2023-04-07T04:48:52.182Z,15.53
2023-04-07T04:51:55.837Z,15.49
2023-04-07T04:54:58.649Z,15.59
2023-04-07T04:58:02.585Z,15.78
2023-04-07T05:01:15.853Z,16.28
2023-04-07T05:04:26.619Z,16.60
2023-04-07T05:07:36.216Z,16.55
2023-04-07T05:10:40.542Z,16.50
2023-04-07T05:13:48.297Z,16.37
2023-04-07T05:16:51.674Z,16.49
2023-04-07T05:19:59.694Z,16.51
2023-04-07T05:23:10.556Z,16.90
2023-04-07T05:26:13.820Z,17.55
2023-04-07T05:29:16.898Z,17.86
2023-04-07T05:32:22.954Z,18.07
2023-04-07T05:35:26.101Z,17.95
2023-04-07T05:38:31.698Z,17.97
2023-04-07T05:41:40.018Z,17.95
2023-04-07T05:44:42.368Z,17.81
2023-04-07T05:47:47.409Z,17.89
2023-04-07T05:50:50.502Z,17.89
2023-04-07T05:53:54.225Z,17.87
2023-04-07T05:56:58.721Z,17.90
2023-04-07T06:00:03.128Z,17.77
2023-04-07T06:03:25.564Z,18.01
2023-04-07T06:06:36.983Z,17.88
2023-04-07T06:09:39.341Z,17.91
2023-04-07T06:12:41.470Z,17.94
2023-04-07T06:15:47.444Z,17.88
2023-04-07T06:18:49.533Z,17.84
2023-04-07T06:21:53.828Z,17.75
2023-04-07T06:24:55.932Z,18.06
2023-04-07T06:28:08.289Z,18.19
2023-04-07T06:31:27.828Z,18.38
2023-04-07T06:34:30.155Z,18.37
2023-04-07T06:37:32.461Z,18.46
2023-04-07T06:40:36.292Z,18.48
2023-04-07T06:43:38.283Z,18.40
2023-04-07T06:46:44.586Z,18.23
2023-04-07T06:49:46.807Z,18.48
2023-04-07T06:52:48.882Z,19.77
2023-04-07T06:55:50.987Z,20.87
2023-04-07T06:58:53.683Z,20.61
2023-04-07T07:01:55.993Z,20.43
2023-04-07T07:04:58.440Z,20.82
2023-04-07T07:08:00.621Z,20.23
2023-04-07T07:11:02.840Z,19.75
2023-04-07T07:14:05.213Z,19.45
2023-04-07T07:17:07.317Z,19.34
2023-04-07T07:20:10.169Z,19.28
2023-04-07T07:23:12.529Z,19.19
2023-04-07T07:26:14.700Z,19.15
2023-04-07T07:29:17.021Z,18.98
2023-04-07T07:32:20.460Z,18.81
2023-04-07T07:35:23.392Z,18.71
2023-04-07T07:38:27.833Z,18.59
2023-04-07T07:41:30.814Z,18.46
2023-04-07T07:44:33.062Z,18.35
2023-04-07T07:47:37.931Z,18.34
2023-04-07T07:50:40.769Z,18.26
2023-04-07T07:53:44.954Z,18.23
2023-04-07T07:56:47.686Z,18.17
2023-04-07T07:59:49.900Z,18.04
2023-04-07T08:02:52.242Z,17.95
2023-04-07T08:05:57.179Z,18.09
2023-04-07T08:09:00.746Z,18.13
2023-04-07T08:12:03.525Z,18.15
2023-04-07T08:16:05.732Z,18.53
2023-04-07T08:19:12.118Z,18.77
2023-04-07T08:22:32.496Z,18.82
2023-04-07T08:25:53.840Z,18.78
2023-04-07T08:28:57.810Z,18.66
2023-04-07T08:32:08.616Z,18.63
2023-04-07T08:36:02.149Z,18.62
2023-04-07T08:39:20.810Z,18.61
2023-04-07T08:42:58.071Z,18.66
2023-04-07T08:46:11.380Z,18.79
2023-04-07T08:50:17.566Z,18.78
2023-04-07T08:59:22.600Z,18.80
2023-04-07T09:02:29.507Z,18.62
2023-04-07T09:06:22.647Z,18.54
2023-04-07T09:09:24.835Z,18.51
2023-04-07T09:12:30.112Z,18.39
2023-04-07T09:15:33.167Z,18.34
2023-04-07T09:18:35.903Z,18.24
2023-04-07T09:21:54.974Z,18.50
2023-04-07T09:25:55.270Z,18.82
2023-04-07T09:29:33.459Z,19.08
2023-04-07T09:38:14.087Z,19.26
2023-04-07T09:41:21.653Z,19.62
2023-04-07T09:44:26.301Z,19.76
2023-04-07T09:53:34.501Z,19.46
2023-04-07T09:56:51.059Z,19.35
2023-04-07T09:59:54.351Z,19.62
2023-04-07T10:02:58.226Z,19.56
2023-04-07T10:06:05.252Z,19.50
2023-04-07T10:09:16.779Z,19.42
2023-04-07T10:12:21.116Z,19.36
2023-04-07T10:15:23.677Z,19.34
2023-04-07T10:18:32.719Z,19.32
2023-04-07T10:21:42.449Z,19.21
2023-04-07T10:24:56.388Z,19.26
2023-04-07T10:28:06.920Z,19.32
2023-04-07T10:31:14.591Z,19.26
2023-04-07T10:34:18.502Z,19.13
2023-04-07T10:37:22.606Z,19.12
2023-04-07T10:40:28.049Z,19.05
2023-04-07T10:43:45.183Z,18.98
2023-04-07T10:46:48.443Z,18.90
2023-04-07T10:50:18.420Z,18.93
2023-04-07T10:53:20.725Z,18.85
2023-04-07T11:00:10.770Z,18.99
2023-04-07T11:03:14.501Z,18.89
2023-04-07T11:06:16.940Z,18.81
2023-04-07T11:09:20.745Z,18.83
2023-04-07T11:12:28.678Z,18.81
2023-04-07T11:15:34.175Z,18.72
2023-04-07T11:18:38.147Z,18.60
2023-04-07T11:21:41.854Z,18.51
2023-04-07T11:24:50.402Z,18.49
2023-04-07T11:28:05.486Z,18.40
2023-04-07T11:31:14.016Z,18.48
2023-04-07T11:34:44.276Z,18.47
2023-04-07T11:37:49.326Z,18.58
2023-04-07T11:40:52.186Z,18.57
2023-04-07T11:44:28.680Z,18.62
2023-04-07T11:47:53.229Z,18.57
2023-04-07T11:54:48.129Z,18.56
2023-04-07T11:58:02.080Z,18.58
2023-04-07T12:01:12.528Z,18.48
2023-04-07T12:04:22.423Z,18.54
2023-04-07T12:07:57.964Z,18.55
2023-04-07T12:11:06.505Z,18.72
2023-04-07T12:14:12.528Z,18.60
2023-04-07T12:17:24.870Z,18.49
2023-04-07T12:20:27.671Z,18.53
2023-04-07T12:23:39.607Z,18.47
2023-04-07T12:26:50.299Z,18.54
2023-04-07T12:29:52.893Z,18.59
2023-04-07T12:33:26.087Z,18.45
2023-04-07T12:36:31.933Z,18.48
2023-04-07T12:39:35.337Z,18.58
2023-04-07T12:42:40.539Z,18.67
2023-04-07T12:45:50.432Z,18.66
2023-04-07T12:48:52.880Z,18.66
2023-04-07T12:51:57.622Z,18.57
2023-04-07T12:55:07.129Z,18.57
2023-04-07T12:58:13.838Z,18.58
2023-04-07T13:01:16.938Z,18.47
2023-04-07T13:04:30.712Z,18.58
2023-04-07T13:07:41.334Z,18.55
2023-04-07T13:10:46.279Z,18.57
2023-04-07T13:13:50.115Z,18.55
2023-04-07T13:16:53.218Z,18.48
2023-04-07T13:19:55.828Z,18.57
2023-04-07T13:23:07.874Z,18.59
2023-04-07T13:26:14.746Z,18.57
2023-04-07T13:29:17.143Z,18.73
2023-04-07T13:32:22.166Z,18.78
2023-04-07T13:35:26.974Z,18.84
2023-04-07T13:38:29.068Z,18.79
2023-04-07T13:41:34.284Z,18.82
2023-04-07T13:44:40.223Z,18.77
2023-04-07T13:47:43.224Z,18.70
2023-04-07T13:50:45.351Z,18.48
2023-04-07T13:53:49.112Z,18.36
2023-04-07T13:56:52.035Z,18.39
2023-04-07T13:59:54.521Z,18.32
2023-04-07T14:03:00.714Z,18.50
2023-04-07T14:06:03.187Z,18.63
2023-04-07T14:09:06.620Z,18.57
2023-04-07T14:12:14.854Z,18.50
2023-04-07T14:15:18.384Z,18.45
2023-04-07T14:18:21.329Z,18.53
2023-04-07T14:21:23.893Z,18.67
2023-04-07T14:24:27.329Z,18.67
2023-04-07T14:27:41.113Z,18.80
2023-04-07T14:30:43.846Z,18.79
2023-04-07T14:33:49.375Z,18.65
2023-04-07T14:41:43.345Z,18.40
2023-04-07T14:49:46.684Z,18.36
2023-04-07T14:52:52.612Z,18.39
2023-04-07T14:55:57.783Z,18.37
2023-04-07T14:59:06.002Z,18.38
2023-04-07T15:02:08.332Z,18.47
2023-04-07T15:05:10.963Z,18.48
2023-04-07T15:08:13.920Z,18.47
2023-04-07T15:11:16.297Z,18.39
2023-04-07T15:14:23.148Z,18.30
2023-04-07T15:17:36.662Z,18.36
2023-04-07T15:20:46.204Z,18.24
2023-04-07T15:23:48.774Z,18.10
2023-04-07T15:26:52.018Z,18.04
2023-04-07T15:30:04.918Z,18.03
2023-04-07T15:33:10.240Z,17.97
2023-04-07T15:36:14.009Z,17.88
2023-04-07T15:39:17.186Z,17.80
2023-04-07T15:42:24.573Z,17.82
2023-04-07T15:45:26.679Z,18.06
2023-04-07T15:48:33.110Z,18.10
2023-04-07T15:51:35.250Z,18.19
2023-04-07T15:54:39.994Z,18.25
2023-04-07T15:57:42.436Z,18.27
2023-04-07T16:00:48.019Z,18.43
2023-04-07T16:03:50.804Z,18.35
2023-04-07T16:06:56.858Z,18.32
2023-04-07T16:10:04.369Z,18.24
2023-04-07T16:13:06.560Z,18.19
2023-04-07T16:16:09.157Z,18.38
2023-04-07T16:19:11.581Z,18.51
2023-04-07T16:22:16.038Z,18.62
2023-04-07T16:25:18.814Z,18.69
2023-04-07T16:28:21.107Z,18.64
2023-04-07T16:31:23.303Z,18.64
2023-04-07T16:34:28.373Z,18.63
2023-04-07T16:37:33.696Z,18.61
2023-04-07T16:40:35.874Z,18.44
2023-04-07T16:43:38.238Z,18.30
2023-04-07T16:46:41.650Z,18.26
2023-04-07T16:49:46.704Z,18.17
2023-04-07T16:53:01.428Z,18.14
2023-04-07T16:56:03.645Z,18.13
2023-04-07T16:59:07.307Z,18.05
2023-04-07T17:02:22.257Z,18.02
2023-04-07T17:05:24.943Z,17.88
2023-04-07T17:08:28.282Z,17.78
2023-04-07T17:11:30.404Z,17.72
2023-04-07T17:14:34.179Z,17.76
2023-04-07T17:17:37.217Z,17.63
2023-04-07T17:20:39.498Z,17.63
2023-04-07T17:23:44.718Z,17.59
2023-04-07T17:26:51.501Z,17.54
2023-04-07T17:29:56.987Z,18.26
2023-04-07T17:33:07.046Z,18.85
2023-04-07T17:36:11.282Z,19.72
2023-04-07T17:39:13.486Z,19.55
2023-04-07T17:42:17.112Z,19.62
2023-04-07T17:45:21.541Z,19.33
2023-04-07T17:48:23.718Z,19.78
2023-04-07T17:51:27.984Z,19.81
2023-04-07T17:54:32.128Z,19.88
2023-04-07T17:57:36.136Z,19.71
2023-04-07T18:00:43.944Z,19.32
2023-04-07T18:04:18.612Z,19.11
2023-04-07T18:07:21.706Z,19.01
2023-04-07T18:10:26.173Z,18.81
2023-04-07T18:13:37.261Z,18.63
2023-04-07T18:16:41.680Z,18.50
2023-04-07T18:19:43.808Z,18.55
2023-04-07T18:22:59.095Z,18.69
2023-04-07T18:26:05.449Z,18.69
2023-04-07T18:29:10.071Z,18.71
2023-04-07T18:32:13.532Z,18.69
2023-04-07T18:35:16.331Z,18.29
2023-04-07T18:38:22.123Z,18.20
2023-04-07T18:41:26.192Z,18.02
2023-04-07T18:44:37.969Z,18.16
2023-04-07T18:47:43.205Z,18.35
2023-04-07T18:51:00.836Z,18.26
2023-04-07T18:54:05.204Z,18.00
2023-04-07T18:57:07.231Z,18.01
2023-04-07T19:00:12.214Z,18.08
2023-04-07T19:03:18.737Z,18.13
2023-04-07T19:06:21.667Z,18.74
2023-04-07T19:09:24.135Z,18.95
2023-04-07T19:12:27.557Z,19.07
2023-04-07T19:15:34.529Z,19.27
2023-04-07T19:18:38.176Z,19.37
2023-04-07T19:21:43.933Z,18.80
2023-04-07T19:24:46.135Z,18.87
2023-04-07T19:27:52.270Z,19.10
2023-04-07T19:30:54.872Z,18.94
2023-04-07T19:33:57.213Z,19.22
2023-04-07T19:37:02.842Z,19.08
2023-04-07T19:40:06.109Z,19.16
2023-04-07T19:43:08.469Z,20.05
2023-04-07T19:46:10.668Z,20.09
2023-04-07T19:49:12.758Z,20.12
2023-04-07T19:52:15.379Z,20.05
2023-04-07T19:55:17.601Z,20.20
2023-04-07T19:58:22.163Z,20.05
2023-04-07T20:01:27.748Z,19.97
2023-04-07T20:04:29.933Z,19.90
2023-04-07T20:07:34.248Z,19.76
2023-04-07T20:10:36.910Z,19.53
2023-04-07T20:13:41.180Z,19.27
2023-04-07T20:16:44.523Z,19.12
2023-04-07T20:19:48.999Z,18.90
2023-04-07T20:22:51.314Z,18.70
2023-04-07T20:25:53.500Z,18.59
2023-04-07T20:28:55.783Z,18.45
2023-04-07T20:31:57.848Z,18.33
2023-04-07T20:35:06.369Z,18.20
2023-04-07T20:38:08.560Z,18.01
2023-04-07T20:41:12.890Z,17.92
2023-04-07T20:44:14.983Z,17.82
2023-04-07T20:47:17.182Z,17.74
2023-04-07T20:50:19.412Z,17.65
2023-04-07T20:53:21.830Z,17.59
2023-04-07T20:56:24.018Z,17.42
2023-04-07T20:59:27.045Z,17.34
2023-04-07T21:02:29.334Z,17.22
2023-04-07T21:05:31.535Z,17.14
2023-04-07T21:08:33.688Z,17.01
2023-04-07T21:11:36.572Z,17.04
2023-04-07T21:14:38.724Z,16.99
2023-04-07T21:17:40.946Z,16.89
2023-04-07T21:20:43.075Z,16.85
2023-04-07T21:23:45.150Z,16.85
2023-04-07T21:26:47.984Z,16.77
2023-04-07T21:29:50.080Z,16.71
2023-04-07T21:32:52.201Z,16.81
2023-04-07T21:35:56.070Z,16.75
2023-04-07T21:38:58.240Z,16.75
2023-04-07T21:42:01.642Z,16.74
2023-04-07T21:45:04.898Z,16.69
2023-04-07T21:48:07.239Z,16.63
2023-04-07T21:51:09.801Z,16.58
2023-04-07T21:54:12.715Z,16.59
2023-04-07T21:57:15.629Z,16.49
2023-04-07T22:00:17.956Z,16.51
2023-04-07T22:03:20.516Z,16.51
2023-04-07T22:06:22.809Z,16.45
2023-04-07T22:09:25.071Z,16.48
2023-04-07T22:12:27.284Z,16.56
2023-04-07T22:15:29.272Z,16.60
2023-04-07T22:18:31.686Z,16.57
2023-04-07T22:21:34.335Z,16.50
2023-04-07T22:24:36.295Z,16.49
2023-04-07T22:27:39.281Z,16.56
2023-04-07T22:30:41.380Z,16.40
2023-04-07T22:33:43.456Z,16.42
2023-04-07T22:36:46.417Z,16.31
2023-04-07T22:39:48.585Z,16.41
2023-04-07T22:42:50.630Z,16.25
2023-04-07T22:45:52.737Z,16.24
2023-04-07T22:48:56.023Z,16.23
2023-04-07T22:51:58.195Z,16.28
2023-04-07T22:55:00.403Z,16.18
2023-04-07T22:58:02.578Z,16.01
2023-04-07T23:01:04.903Z,15.97
2023-04-07T23:04:07.190Z,16.03
2023-04-07T23:07:09.229Z,16.06
2023-04-07T23:10:11.586Z,15.98
2023-04-07T23:13:15.294Z,16.06
2023-04-07T23:16:17.443Z,16.01
2023-04-07T23:19:19.641Z,16.10
2023-04-07T23:22:22.220Z,16.07
2023-04-07T23:25:24.471Z,16.03
2023-04-07T23:28:28.210Z,16.01
2023-04-07T23:31:30.581Z,16.00
2023-04-07T23:34:32.710Z,15.95
2023-04-07T23:37:35.157Z,15.89
2023-04-07T23:40:37.461Z,15.86
2023-04-07T23:43:40.453Z,15.83
2023-04-07T23:46:42.664Z,15.76
2023-04-07T23:49:44.835Z,15.69
2023-04-07T23:52:47.057Z,15.75
2023-04-07T23:55:50.765Z,15.58
2023-04-07T23:58:52.978Z,15.73
